Time;durP1;ratioP1;P1;durP2;ratioP2;P2;SDS_P1;SDS_P2;PMS_P1;PMS_P2;Temp;Humidity;BMP_temperature;BMP_pressure;BME280_temperature;BME280_humidity;BME280_pressure;Samples;Min_cycle;Max_cycle;Signal;HPM_P1;HPM_P2
2023/05/08 00:00:21;;;;;;;13.23;8.98;;;15.50;99.90;;;;;;4890844;29;20121;-69
2023/05/08 05:01:40;;;;;;;10.20;6.63;;;15.50;99.90;;;;;;5685146;23;20281;-69
2023/05/08 05:04:06;;;;;;;9.05;7.75;;;15.60;99.90;;;;;;4899862;29;20043;-69
2023/05/08 05:06:33;;;;;;;12.10;8.73;;;15.60;99.90;;;;;;4898857;29;20206;-69
2023/05/08 05:08:58;;;;;;;11.27;8.57;;;15.70;99.90;;;;;;4892877;29;20055;-69
2023/05/08 05:11:25;;;;;;;11.93;8.50;;;15.70;99.90;;;;;;4889329;29;20025;-69
2023/05/08 05:13:51;;;;;;;12.00;9.55;;;15.70;99.90;;;;;;4872101;29;20029;-72
2023/05/08 05:16:16;;;;;;;12.30;9.63;;;15.80;99.90;;;;;;4903584;29;20021;-69
2023/05/08 05:18:42;;;;;;;12.65;8.55;;;15.80;99.90;;;;;;4889155;29;20282;-69
2023/05/08 05:21:08;;;;;;;13.07;8.60;;;15.70;99.90;;;;;;4893853;29;20060;-69
2023/05/08 05:23:34;;;;;;;8.35;7.40;;;15.70;99.90;;;;;;4896212;29;20033;-70
2023/05/08 05:26:00;;;;;;;10.70;8.60;;;15.70;99.90;;;;;;4888455;29;20086;-70
2023/05/08 05:28:26;;;;;;;10.80;8.63;;;15.70;99.90;;;;;;4900136;29;20035;-70
2023/05/08 05:30:52;;;;;;;11.48;8.95;;;15.70;99.90;;;;;;4874119;29;20378;-69
2023/05/08 05:33:18;;;;;;;11.10;7.28;;;15.70;99.90;;;;;;4889139;29;20040;-69
2023/05/08 05:35:43;;;;;;;10.30;8.35;;;15.70;99.90;;;;;;4888931;29;20028;-70
2023/05/08 05:38:10;;;;;;;13.10;8.63;;;15.70;99.90;;;;;;4903086;29;20223;-70
2023/05/08 05:40:35;;;;;;;11.77;9.02;;;15.70;99.90;;;;;;4904170;29;20040;-69
2023/05/08 05:43:01;;;;;;;8.63;7.68;;;15.60;99.90;;;;;;4881994;29;20528;-69
2023/05/08 05:45:27;;;;;;;10.13;8.15;;;15.60;99.90;;;;;;4888710;29;20084;-69
2023/05/08 05:47:53;;;;;;;11.80;8.63;;;15.60;99.90;;;;;;4874185;29;20025;-70
2023/05/08 05:50:21;;;;;;;13.88;9.07;;;15.60;99.90;;;;;;4903480;29;20191;-70
2023/05/08 05:52:47;;;;;;;12.55;9.30;;;15.60;99.90;;;;;;4872258;29;20041;-70
2023/05/08 05:55:13;;;;;;;12.02;8.75;;;15.60;99.90;;;;;;4871713;29;20076;-70
2023/05/08 05:57:39;;;;;;;11.00;8.98;;;15.60;99.90;;;;;;4900930;29;20067;-70
2023/05/08 06:00:06;;;;;;;10.93;8.82;;;15.60;99.90;;;;;;4900585;29;20345;-70
2023/05/08 06:02:40;;;;;;;10.95;8.93;;;15.60;99.90;;;;;;4910937;29;20067;-70
2023/05/08 06:05:07;;;;;;;10.63;8.43;;;15.70;99.90;;;;;;4893821;29;20036;-70
2023/05/08 06:07:33;;;;;;;12.23;8.10;;;15.60;99.90;;;;;;4911228;29;20332;-70
2023/05/08 06:09:59;;;;;;;9.23;7.88;;;15.70;99.90;;;;;;4895455;29;20065;-72
2023/05/08 06:12:26;;;;;;;9.07;7.88;;;15.70;99.90;;;;;;4896260;29;20337;-70
2023/05/08 06:14:53;;;;;;;9.60;7.60;;;15.70;99.90;;;;;;4911022;29;20036;-70
2023/05/08 06:17:19;;;;;;;8.85;6.75;;;15.70;99.90;;;;;;4894175;29;20108;-70
2023/05/08 06:19:49;;;;;;;10.40;7.20;;;15.70;99.90;;;;;;4907067;29;20037;-70
2023/05/08 06:22:17;;;;;;;9.68;7.28;;;15.80;99.90;;;;;;4894360;29;20089;-71
2023/05/08 06:24:43;;;;;;;8.75;7.55;;;15.80;99.90;;;;;;4903464;29;20043;-71
2023/05/08 06:27:09;;;;;;;8.80;7.43;;;15.80;99.90;;;;;;4910588;29;20271;-71
2023/05/08 06:29:35;;;;;;;11.40;7.93;;;15.90;99.90;;;;;;4898887;29;20183;-71
2023/05/08 06:32:00;;;;;;;10.60;7.65;;;15.90;99.90;;;;;;4909994;29;20036;-71
2023/05/08 06:34:26;;;;;;;11.60;8.23;;;16.00;99.90;;;;;;4907504;29;20056;-71
2023/05/08 06:36:52;;;;;;;9.82;7.82;;;16.10;99.90;;;;;;4895125;29;20377;-71
2023/05/08 06:39:18;;;;;;;10.95;8.65;;;16.20;99.90;;;;;;4906927;29;20107;-70
2023/05/08 06:41:47;;;;;;;8.73;7.82;;;16.30;99.90;;;;;;4893813;29;20068;-70
2023/05/08 06:44:18;;;;;;;11.32;7.78;;;16.30;99.90;;;;;;4875491;29;20033;-70
2023/05/08 06:46:43;;;;;;;9.02;7.65;;;16.40;99.90;;;;;;4891389;29;20149;-72
2023/05/08 06:49:09;;;;;;;10.27;7.72;;;16.40;99.90;;;;;;4891102;29;20251;-70
2023/05/08 06:51:37;;;;;;;9.40;7.35;;;16.50;99.90;;;;;;4891351;29;20113;-70
2023/05/08 06:54:06;;;;;;;10.13;7.85;;;16.60;99.90;;;;;;4888813;29;20045;-70
2023/05/08 06:56:33;;;;;;;8.63;6.40;;;16.60;99.90;;;;;;4906676;29;20103;-71
2023/05/08 06:58:58;;;;;;;9.98;7.35;;;16.70;99.90;;;;;;4892954;29;20263;-71
2023/05/08 07:01:24;;;;;;;10.07;7.43;;;16.90;99.90;;;;;;4898044;29;20032;-70
2023/05/08 07:03:50;;;;;;;11.27;7.00;;;17.00;99.90;;;;;;4910064;29;20040;-70
2023/05/08 07:06:16;;;;;;;8.02;6.57;;;17.00;99.90;;;;;;4909840;29;20055;-70
2023/05/08 07:08:41;;;;;;;10.75;6.10;;;17.10;99.90;;;;;;4910134;29;20033;-70
2023/05/08 07:11:08;;;;;;;9.25;6.65;;;17.10;99.90;;;;;;4903747;29;20234;-70
2023/05/08 07:13:37;;;;;;;8.88;6.05;;;17.10;99.90;;;;;;4907535;29;20333;-70
2023/05/08 07:16:09;;;;;;;10.32;6.03;;;17.10;99.90;;;;;;4888817;29;20049;-70
2023/05/08 07:18:35;;;;;;;8.32;6.85;;;17.00;99.90;;;;;;4893994;29;20052;-72
2023/05/08 07:21:01;;;;;;;8.90;6.25;;;17.00;99.90;;;;;;4904021;29;20100;-71
2023/05/08 07:23:26;;;;;;;8.90;6.07;;;17.00;99.90;;;;;;4899741;29;20040;-72
2023/05/08 07:25:53;;;;;;;8.20;6.05;;;17.00;99.90;;;;;;4909169;29;20053;-72
2023/05/08 07:28:19;;;;;;;7.22;6.10;;;17.00;99.90;;;;;;4900489;29;20040;-72
2023/05/08 07:30:45;;;;;;;9.00;6.68;;;17.00;99.90;;;;;;4904989;29;20099;-72
2023/05/08 07:33:11;;;;;;;7.93;6.97;;;17.10;99.90;;;;;;4909254;29;20326;-72
2023/05/08 07:35:40;;;;;;;8.00;6.80;;;17.10;99.90;;;;;;4909728;29;20083;-71
2023/05/08 07:38:07;;;;;;;8.50;6.10;;;17.10;99.90;;;;;;4908976;29;20051;-72
2023/05/08 07:40:32;;;;;;;10.20;6.55;;;17.10;99.90;;;;;;4909520;29;20033;-70
2023/05/08 07:42:58;;;;;;;8.85;6.35;;;17.00;99.90;;;;;;4908770;29;20397;-72
2023/05/08 07:45:24;;;;;;;10.30;6.50;;;16.90;99.90;;;;;;4909003;29;20095;-73
2023/05/08 07:47:52;;;;;;;8.68;6.70;;;16.90;99.90;;;;;;4909433;29;20024;-73
2023/05/08 07:50:19;;;;;;;8.55;6.25;;;16.90;99.90;;;;;;4908876;29;20040;-72
2023/05/08 07:52:45;;;;;;;9.25;6.47;;;16.80;99.90;;;;;;4908993;29;20029;-72
2023/05/08 07:55:10;;;;;;;12.13;6.80;;;16.90;99.90;;;;;;4908482;29;20246;-72
2023/05/08 07:57:37;;;;;;;8.63;6.20;;;16.90;99.90;;;;;;4902800;29;20080;-71
2023/05/08 08:00:07;;;;;;;9.95;5.63;;;17.00;99.90;;;;;;4908713;29;20084;-71
2023/05/08 08:02:42;;;;;;;8.02;5.72;;;17.00;99.90;;;;;;4908606;29;20235;-71
2023/05/08 08:05:09;;;;;;;7.35;5.97;;;17.10;99.90;;;;;;4891265;29;20044;-71
2023/05/08 08:07:35;;;;;;;9.07;5.95;;;17.20;99.90;;;;;;4895893;29;20238;-72
2023/05/08 08:10:02;;;;;;;11.48;5.85;;;17.40;99.90;;;;;;4895239;29;20088;-71
2023/05/08 08:12:28;;;;;;;6.45;5.72;;;17.60;99.90;;;;;;4908280;29;20063;-72
2023/05/08 08:14:54;;;;;;;6.35;4.63;;;17.60;99.90;;;;;;4909059;29;20040;-72
2023/05/08 08:17:20;;;;;;;8.30;4.70;;;17.90;99.90;;;;;;4907851;29;20037;-71
2023/05/08 08:19:45;;;;;;;7.13;5.88;;;18.00;99.90;;;;;;4908624;29;20048;-71
2023/05/08 08:22:11;;;;;;;6.93;5.00;;;18.00;99.90;;;;;;4908384;29;20052;-75
2023/05/08 08:24:37;;;;;;;7.15;4.95;;;18.00;99.90;;;;;;4908516;29;20063;-71
2023/05/08 08:27:04;;;;;;;6.63;5.15;;;18.00;99.90;;;;;;4908367;29;20048;-70
2023/05/08 08:29:30;;;;;;;11.70;6.18;;;18.00;99.90;;;;;;4899879;29;20100;-71
2023/05/08 08:31:56;;;;;;;10.63;6.63;;;18.00;99.90;;;;;;4908613;29;20033;-70
2023/05/08 08:34:22;;;;;;;8.20;5.35;;;18.00;99.90;;;;;;4907718;29;20032;-70
2023/05/08 08:36:48;;;;;;;7.93;5.68;;;18.00;99.90;;;;;;4903506;29;20069;-70
2023/05/08 08:39:14;;;;;;;7.70;5.32;;;18.10;99.90;;;;;;4889045;29;20121;-71
2023/05/08 08:41:40;;;;;;;9.30;5.47;;;18.30;99.90;;;;;;4899602;29;20025;-71
2023/05/08 08:44:06;;;;;;;7.38;5.43;;;18.40;99.90;;;;;;4907524;29;20091;-70
2023/05/08 08:46:34;;;;;;;7.15;4.53;;;18.50;99.90;;;;;;4876244;29;20347;-70
2023/05/08 08:49:03;;;;;;;7.82;4.25;;;18.50;99.90;;;;;;4908394;29;20096;-70
2023/05/08 08:51:37;;;;;;;7.97;4.90;;;18.60;99.90;;;;;;4908261;29;20024;-70
2023/05/08 08:54:13;;;;;;;6.70;4.65;;;18.60;99.90;;;;;;4907552;29;20260;-70
2023/05/08 08:56:43;;;;;;;7.43;5.35;;;18.90;99.90;;;;;;4907987;29;20031;-71
2023/05/08 08:59:10;;;;;;;6.93;5.03;;;18.90;99.90;;;;;;4904513;29;20258;-70
2023/05/08 09:01:39;;;;;;;9.03;6.10;;;18.80;99.90;;;;;;4908012;29;20048;-71
2023/05/08 09:04:05;;;;;;;9.73;5.22;;;18.80;99.90;;;;;;4907353;29;20032;-72
2023/05/08 09:06:35;;;;;;;8.20;5.97;;;18.80;99.90;;;;;;4907911;29;20080;-71
2023/05/08 09:09:02;;;;;;;6.47;5.07;;;18.50;99.90;;;;;;4902421;29;20029;-71
2023/05/08 09:11:28;;;;;;;8.68;6.55;;;18.60;99.90;;;;;;4900446;29;20063;-70
2023/05/08 09:13:54;;;;;;;9.30;6.30;;;18.50;99.90;;;;;;4907928;29;20315;-71
2023/05/08 09:16:20;;;;;;;10.55;6.35;;;18.30;99.90;;;;;;4907190;29;20033;-70
2023/05/08 09:18:46;;;;;;;9.82;6.38;;;18.30;99.90;;;;;;4907829;29;20024;-72
2023/05/08 09:21:12;;;;;;;10.93;6.97;;;18.30;99.90;;;;;;4907225;29;20042;-71
2023/05/08 09:24:07;;;;;;;10.68;7.05;;;18.20;99.90;;;;;;4907432;29;20084;-71
2023/05/08 09:26:38;;;;;;;8.85;6.70;;;18.10;99.90;;;;;;4863694;29;20052;-71
2023/05/08 09:29:08;;;;;;;9.02;6.75;;;18.30;99.90;;;;;;4898826;29;20033;-72
2023/05/08 09:31:35;;;;;;;9.25;6.68;;;18.40;99.90;;;;;;4907516;29;20103;-71
2023/05/08 09:34:01;;;;;;;10.27;7.28;;;18.40;99.90;;;;;;4907417;29;20073;-71
2023/05/08 09:36:28;;;;;;;11.40;7.32;;;18.60;99.90;;;;;;4906212;29;20103;-71
2023/05/08 09:38:53;;;;;;;15.57;7.57;;;18.90;99.90;;;;;;4907566;29;20036;-71
2023/05/08 09:41:20;;;;;;;7.90;6.93;;;19.00;99.90;;;;;;4906121;29;20218;-71
2023/05/08 09:44:03;;;;;;;9.05;6.57;;;19.30;99.90;;;;;;4885160;29;20021;-71
2023/05/08 09:46:30;;;;;;;10.02;6.55;;;19.60;99.90;;;;;;4876962;29;20037;-72
2023/05/08 09:48:58;;;;;;;10.13;6.80;;;19.80;99.90;;;;;;4905486;29;20269;-71
2023/05/08 09:51:25;;;;;;;11.23;6.95;;;20.00;99.90;;;;;;4889012;29;20262;-71
2023/05/08 09:53:56;;;;;;;11.38;7.00;;;20.00;99.90;;;;;;4907329;29;20365;-71
2023/05/08 09:56:38;;;;;;;9.15;6.93;;;20.30;99.90;;;;;;4906786;29;20191;-71
2023/05/08 09:59:21;;;;;;;8.32;6.80;;;20.60;99.90;;;;;;4902356;29;20121;-71
2023/05/08 10:01:47;;;;;;;7.20;6.10;;;20.60;99.90;;;;;;4901402;29;20060;-71
2023/05/08 10:04:14;;;;;;;8.40;6.40;;;20.70;99.90;;;;;;4906998;29;20046;-71
2023/05/08 10:06:39;;;;;;;8.75;5.70;;;20.70;99.90;;;;;;4907018;29;20107;-71
2023/05/08 10:09:13;;;;;;;8.15;6.10;;;21.10;99.90;;;;;;4901277;29;20045;-71
2023/05/08 10:11:53;;;;;;;10.93;6.45;;;21.20;99.90;;;;;;4901216;29;20103;-72
2023/05/08 10:14:19;;;;;;;8.70;6.30;;;21.20;99.90;;;;;;4899811;29;20283;-71
2023/05/08 10:16:48;;;;;;;8.07;6.13;;;21.10;99.90;;;;;;4879507;29;20025;-71
2023/05/08 10:19:16;;;;;;;6.75;5.35;;;21.00;99.90;;;;;;4881664;29;20040;-71
2023/05/08 10:21:46;;;;;;;7.65;5.78;;;20.90;99.90;;;;;;4894933;29;20110;-71
2023/05/08 10:24:18;;;;;;;7.15;5.47;;;21.20;99.90;;;;;;4908270;29;20100;-70
2023/05/08 10:27:16;;;;;;;7.88;5.15;;;21.30;99.90;;;;;;4907439;29;20053;-71
2023/05/08 10:29:51;;;;;;;8.07;6.05;;;21.40;99.90;;;;;;4888588;29;20139;-71
2023/05/08 10:32:19;;;;;;;7.82;5.65;;;21.50;99.90;;;;;;4877459;29;20044;-71
2023/05/08 10:34:51;;;;;;;7.05;5.43;;;21.70;99.90;;;;;;4907208;29;20210;-71
2023/05/08 10:37:17;;;;;;;7.55;5.22;;;21.70;99.90;;;;;;4906662;29;20033;-71
2023/05/08 10:39:44;;;;;;;6.82;5.03;;;21.50;99.90;;;;;;4906854;29;20041;-70
2023/05/08 10:42:12;;;;;;;7.05;4.82;;;21.30;99.90;;;;;;4905649;29;20047;-71
2023/05/08 10:44:38;;;;;;;;;;;21.40;99.90;;;;;;4907587;29;20032;-70
2023/05/08 10:47:14;;;;;;;5.85;4.35;;;21.50;99.90;;;;;;4909478;29;19942;-71
2023/05/08 10:49:50;;;;;;;6.00;4.07;;;21.50;99.90;;;;;;4910689;29;20379;-70
2023/05/08 10:52:42;;;;;;;6.18;4.07;;;21.20;99.90;;;;;;4905836;29;20049;-70
2023/05/08 10:55:18;;;;;;;5.65;3.75;;;21.00;99.90;;;;;;4909935;29;20126;-70
2023/05/08 10:58:10;;;;;;;7.90;3.80;;;20.70;99.90;;;;;;4892986;29;20049;-71
2023/05/08 11:00:51;;;;;;;5.60;3.42;;;21.00;99.90;;;;;;4907669;29;20084;-71
2023/05/08 11:03:18;;;;;;;6.18;4.10;;;21.30;99.90;;;;;;4909556;29;20237;-70
2023/05/08 11:05:46;;;;;;;4.32;3.80;;;21.30;99.90;;;;;;4909967;29;20088;-72
2023/05/08 11:08:17;;;;;;;6.70;3.78;;;21.20;99.90;;;;;;4909645;29;20036;-71
2023/05/08 11:10:52;;;;;;;6.60;3.65;;;21.30;99.90;;;;;;4902053;29;20080;-79
2023/05/08 11:13:26;;;;;;;5.57;3.70;;;21.50;99.90;;;;;;4910086;29;20040;-70
2023/05/08 11:15:52;;;;;;;6.57;3.83;;;21.40;99.90;;;;;;4910134;29;20084;-70
2023/05/08 11:18:17;;;;;;;6.65;3.65;;;21.70;99.90;;;;;;4909787;29;20025;-72
2023/05/08 11:21:04;;;;;;;5.20;3.70;;;22.10;99.90;;;;;;4893349;29;20048;-71
2023/05/08 11:23:35;;;;;;;4.75;3.33;;;22.40;99.90;;;;;;4892662;29;20052;-71
2023/05/08 11:26:05;;;;;;;4.30;3.17;;;22.40;99.90;;;;;;4909608;29;20357;-70
2023/05/08 11:28:39;;;;;;;5.80;3.47;;;22.60;99.90;;;;;;4899974;29;20354;-71
2023/05/08 11:31:07;;;;;;;4.70;2.97;;;22.70;99.90;;;;;;4908097;29;20033;-70
2023/05/08 11:33:38;;;;;;;4.57;3.45;;;22.90;99.90;;;;;;4891807;29;20096;-72
2023/05/08 11:36:16;;;;;;;4.35;3.33;;;23.40;99.90;;;;;;4898493;29;20036;-72
2023/05/08 11:38:42;;;;;;;;;;;23.90;99.90;;;;;;4910135;29;20033;-72
2023/05/08 11:41:29;;;;;;;4.47;3.72;;;24.20;99.90;;;;;;4896947;29;19956;-71
2023/05/08 11:44:00;;;;;;;5.97;4.32;;;24.50;99.10;;;;;;4896511;29;20047;-72
2023/05/08 11:46:53;;;;;;;6.38;4.75;;;25.10;98.40;;;;;;4893760;29;20032;-72
2023/05/08 11:49:24;;;;;;;6.82;4.93;;;25.40;97.80;;;;;;4891464;29;20053;-71
2023/05/08 11:51:56;;;;;;;8.88;5.40;;;25.80;96.80;;;;;;4899977;29;20318;-70
2023/05/08 11:54:23;;;;;;;6.53;4.97;;;25.60;96.60;;;;;;4908662;29;20108;-71
2023/05/08 11:56:51;;;;;;;9.60;5.95;;;26.60;95.00;;;;;;4900866;29;20052;-71
2023/05/08 11:59:17;;;;;;;5.70;4.30;;;26.70;94.20;;;;;;4897301;29;20055;-70
2023/05/08 12:01:43;;;;;;;6.22;4.70;;;26.50;95.20;;;;;;4909031;29;20068;-70
2023/05/08 12:04:11;;;;;;;8.00;5.93;;;27.20;94.10;;;;;;4909412;29;20040;-71
2023/05/08 12:06:39;;;;;;;7.72;5.93;;;27.40;92.90;;;;;;4903168;29;20370;-72
2023/05/08 12:09:16;;;;;;;7.07;5.93;;;27.80;92.10;;;;;;4908175;29;20095;-70
2023/05/08 12:11:44;;;;;;;6.10;4.97;;;27.90;92.10;;;;;;4898831;29;20039;-71
2023/05/08 12:14:11;;;;;;;5.68;4.72;;;28.00;91.50;;;;;;4908980;29;20441;-71
2023/05/08 12:16:38;;;;;;;10.13;5.55;;;28.20;91.80;;;;;;4908656;29;20043;-70
2023/05/08 12:19:09;;;;;;;7.53;5.55;;;27.50;90.70;;;;;;4908584;29;20341;-73
2023/05/08 12:21:35;;;;;;;6.15;4.93;;;27.20;91.70;;;;;;4908320;29;20234;-71
2023/05/08 12:24:10;;;;;;;7.60;4.90;;;27.50;91.10;;;;;;4908564;29;20043;-71
2023/05/08 12:26:37;;;;;;;5.65;5.00;;;27.10;91.10;;;;;;4907838;29;20047;-70
2023/05/08 12:29:07;;;;;;;7.18;5.55;;;26.40;91.90;;;;;;4908233;29;20069;-72
2023/05/08 12:31:36;;;;;;;5.97;5.00;;;26.20;92.10;;;;;;4907950;29;20244;-71
2023/05/08 12:34:03;;;;;;;7.30;5.03;;;25.90;92.70;;;;;;4908808;29;20036;-71
2023/05/08 12:36:36;;;;;;;7.05;5.00;;;25.80;93.10;;;;;;4907930;29;20311;-71
2023/05/08 12:39:12;;;;;;;7.43;5.85;;;25.60;93.10;;;;;;4908344;29;20099;-71
2023/05/08 12:41:56;;;;;;;8.73;5.80;;;25.30;93.30;;;;;;4896969;29;20242;-72
2023/05/08 12:44:23;;;;;;;7.07;5.75;;;25.80;93.20;;;;;;4907802;29;20040;-72
2023/05/08 12:46:51;;;;;;;7.20;4.83;;;26.40;92.70;;;;;;4899646;29;20309;-72
2023/05/08 12:49:36;;;;;;;7.00;5.07;;;27.10;91.60;;;;;;4905525;29;20020;-72
2023/05/08 12:52:22;;;;;;;6.60;5.25;;;27.50;90.80;;;;;;4908765;29;20040;-71
2023/05/08 12:54:48;;;;;;;7.70;4.95;;;28.80;90.40;;;;;;4908077;29;20061;-71
2023/05/08 12:57:16;;;;;;;7.63;4.88;;;30.10;86.20;;;;;;4899656;29;20041;-72
2023/05/08 12:59:43;;;;;;;7.47;4.38;;;29.70;83.50;;;;;;4908362;29;20038;-73
2023/05/08 13:02:17;;;;;;;5.60;4.40;;;29.40;83.40;;;;;;4908435;29;20289;-72
2023/05/08 13:04:44;;;;;;;8.35;4.45;;;30.00;82.40;;;;;;4908408;29;20036;-71
2023/05/08 13:07:10;;;;;;;4.78;3.50;;;30.80;81.60;;;;;;4907984;29;20041;-72
2023/05/08 13:09:37;;;;;;;5.32;4.70;;;30.30;82.10;;;;;;4906989;29;20106;-72
2023/05/08 13:12:03;;;;;;;5.93;4.40;;;29.70;81.40;;;;;;4908269;29;20032;-72
2023/05/08 13:14:28;;;;;;;5.90;4.22;;;29.20;82.40;;;;;;4907436;29;20040;-71
2023/05/08 13:16:54;;;;;;;6.45;4.82;;;29.10;82.20;;;;;;4908153;29;20051;-70
2023/05/08 13:19:20;;;;;;;5.57;4.50;;;28.60;82.40;;;;;;4910374;29;20031;-72
2023/05/08 13:21:46;;;;;;;5.18;4.43;;;28.50;83.60;;;;;;4926871;29;20016;-72
2023/05/08 13:24:13;;;;;;;5.75;4.53;;;28.70;83.00;;;;;;4926612;29;20046;-71
2023/05/08 13:26:39;;;;;;;6.72;5.05;;;28.50;82.90;;;;;;4926160;29;20071;-71
2023/05/08 13:29:05;;;;;;;5.38;4.80;;;27.70;84.50;;;;;;4915630;29;20096;-71
2023/05/08 13:31:30;;;;;;;6.20;5.28;;;26.70;85.70;;;;;;4907484;29;20072;-71
2023/05/08 13:33:56;;;;;;;6.32;4.82;;;25.80;89.20;;;;;;4907779;29;20101;-73
2023/05/08 13:36:22;;;;;;;7.40;5.93;;;25.50;89.40;;;;;;4907207;29;20098;-72
2023/05/08 13:38:50;;;;;;;7.93;5.75;;;24.90;90.10;;;;;;4907476;29;20027;-72
2023/05/08 13:41:16;;;;;;;6.95;6.22;;;24.50;90.70;;;;;;4907008;29;20274;-73
2023/05/08 13:43:42;;;;;;;7.90;6.05;;;24.00;91.90;;;;;;4907561;29;20032;-72
2023/05/08 13:46:07;;;;;;;7.03;5.72;;;23.90;92.70;;;;;;4907176;29;20059;-71
2023/05/08 13:48:33;;;;;;;8.73;6.13;;;23.90;92.70;;;;;;4890095;29;20318;-71
2023/05/08 13:50:59;;;;;;;9.43;6.72;;;23.70;93.10;;;;;;4907919;29;20026;-72
2023/05/08 13:53:25;;;;;;;6.82;5.82;;;23.00;93.90;;;;;;4925794;29;20199;-73
2023/05/08 13:55:50;;;;;;;8.23;6.75;;;22.60;95.00;;;;;;4920299;29;20351;-71
2023/05/08 13:58:16;;;;;;;7.50;6.65;;;22.50;94.70;;;;;;4909486;29;20311;-72
2023/05/08 14:00:42;;;;;;;11.35;7.10;;;22.40;94.90;;;;;;4926394;29;20032;-73
2023/05/08 14:03:07;;;;;;;9.85;6.80;;;22.50;95.70;;;;;;4926399;29;20071;-73
2023/05/08 14:05:34;;;;;;;9.13;6.97;;;22.50;95.00;;;;;;4925830;29;20091;-73
2023/05/08 14:07:59;;;;;;;9.10;7.63;;;22.50;95.40;;;;;;4921706;29;20044;-73
2023/05/08 14:10:25;;;;;;;7.82;6.63;;;22.10;95.60;;;;;;4906660;29;20040;-72
2023/05/08 14:12:51;;;;;;;11.30;7.05;;;22.00;96.30;;;;;;4907636;29;20028;-73
2023/05/08 14:15:17;;;;;;;8.25;6.85;;;22.00;96.20;;;;;;4907199;29;20216;-73
2023/05/08 14:17:43;;;;;;;8.00;6.57;;;21.80;96.00;;;;;;4907196;29;20330;-73
2023/05/08 14:20:09;;;;;;;9.00;7.00;;;21.70;96.40;;;;;;4907377;29;20076;-73
2023/05/08 14:22:34;;;;;;;8.38;6.82;;;21.80;96.50;;;;;;4909739;29;20051;-72
2023/05/08 14:25:00;;;;;;;8.25;7.18;;;21.50;96.50;;;;;;4910749;29;20055;-72
2023/05/08 14:27:26;;;;;;;11.15;7.82;;;21.50;97.30;;;;;;4910396;29;20096;-71
2023/05/08 14:29:52;;;;;;;9.02;6.78;;;21.20;97.20;;;;;;4918941;29;20246;-71
2023/05/08 14:32:18;;;;;;;9.30;6.65;;;21.10;97.90;;;;;;4928986;29;20044;-73
2023/05/08 14:34:43;;;;;;;8.13;6.70;;;21.10;98.30;;;;;;4929699;29;20328;-72
2023/05/08 14:37:10;;;;;;;9.43;6.90;;;21.10;98.20;;;;;;4929569;29;20032;-72
2023/05/08 14:39:36;;;;;;;9.75;6.93;;;21.10;97.90;;;;;;4929224;29;20059;-72
2023/05/08 14:42:01;;;;;;;8.70;6.65;;;21.10;97.90;;;;;;4897240;29;20325;-70
2023/05/08 14:44:28;;;;;;;8.68;6.75;;;21.20;98.20;;;;;;4915633;29;20059;-71
2023/05/08 14:46:53;;;;;;;11.05;7.25;;;21.10;97.90;;;;;;4929953;29;20028;-71
2023/05/08 14:49:19;;;;;;;7.82;6.50;;;21.00;99.70;;;;;;4928921;29;20091;-72
2023/05/08 14:51:45;;;;;;;8.40;6.68;;;20.80;99.60;;;;;;4929406;29;20040;-71
2023/05/08 14:54:10;;;;;;;8.63;6.68;;;20.70;99.40;;;;;;4929516;29;20039;-72
2023/05/08 14:56:36;;;;;;;13.65;10.55;;;20.70;99.90;;;;;;4914288;29;20039;-71
2023/05/08 14:59:02;;;;;;;12.00;10.07;;;20.60;99.90;;;;;;4910177;29;20098;-71
2023/05/08 15:01:28;;;;;;;12.43;10.70;;;20.30;99.90;;;;;;4909782;29;20236;-71
2023/05/08 15:03:53;;;;;;;13.15;11.10;;;19.80;99.90;;;;;;4910220;29;20281;-71
2023/05/08 15:06:20;;;;;;;16.17;12.13;;;19.60;99.90;;;;;;4909620;29;20064;-72
2023/05/08 15:08:47;;;;;;;15.23;11.90;;;19.30;99.90;;;;;;4918153;29;20044;-71
2023/05/08 15:11:13;;;;;;;14.57;12.65;;;19.20;99.90;;;;;;4918132;29;20048;-71
2023/05/08 15:13:38;;;;;;;14.75;12.38;;;19.10;99.90;;;;;;4928441;29;20043;-71
2023/05/08 15:16:05;;;;;;;14.63;12.43;;;19.00;99.90;;;;;;4929103;29;20068;-71
2023/05/08 15:18:30;;;;;;;15.80;12.82;;;18.90;99.90;;;;;;4928447;29;20036;-71
2023/05/08 15:20:58;;;;;;;14.43;12.45;;;18.90;99.90;;;;;;4929229;29;20024;-71
2023/05/08 15:23:25;;;;;;;13.85;11.98;;;18.90;99.90;;;;;;4928767;29;20035;-71
2023/05/08 15:25:50;;;;;;;14.20;11.35;;;18.90;99.90;;;;;;4912074;29;20083;-72
2023/05/08 15:28:16;;;;;;;14.57;12.13;;;19.10;99.90;;;;;;4929097;29;20250;-71
2023/05/08 15:30:46;;;;;;;14.43;11.57;;;19.50;99.90;;;;;;4928426;29;20401;-72
2023/05/08 15:33:12;;;;;;;13.52;11.00;;;19.70;99.90;;;;;;4927946;29;20091;-72
2023/05/08 15:35:37;;;;;;;13.13;10.85;;;19.90;99.90;;;;;;4928144;29;20083;-71
2023/05/08 15:38:05;;;;;;;15.18;10.55;;;20.20;99.90;;;;;;4928483;29;20032;-72
2023/05/08 15:40:32;;;;;;;12.93;11.10;;;20.60;99.90;;;;;;4923115;29;20037;-71
2023/05/08 15:42:58;;;;;;;12.23;10.05;;;21.00;99.90;;;;;;4909631;29;20191;-76
2023/05/08 15:45:24;;;;;;;11.45;10.23;;;21.50;99.90;;;;;;4909151;29;20084;-75
2023/05/08 15:47:50;;;;;;;12.75;9.52;;;22.00;99.90;;;;;;4909753;29;20032;-74
2023/05/08 15:50:15;;;;;;;11.60;8.35;;;23.10;99.90;;;;;;4909330;29;20036;-75
2023/05/08 15:52:41;;;;;;;11.02;9.13;;;23.80;99.90;;;;;;4908948;29;20079;-78
2023/05/08 15:55:07;;;;;;;11.05;9.38;;;24.30;99.90;;;;;;4909521;29;20032;-74
2023/05/08 15:57:33;;;;;;;10.52;8.90;;;24.60;99.90;;;;;;4908849;29;20031;-74
2023/05/08 15:59:58;;;;;;;10.73;8.18;;;24.40;99.90;;;;;;4909241;29;20025;-74
2023/05/08 16:02:24;;;;;;;9.85;8.75;;;24.30;99.90;;;;;;4897655;29;20040;-74
2023/05/08 16:04:50;;;;;;;12.55;9.45;;;24.00;99.90;;;;;;4892465;29;20043;-74
2023/05/08 16:07:16;;;;;;;11.25;8.35;;;23.70;99.90;;;;;;4925254;29;20044;-74
2023/05/08 16:09:42;;;;;;;11.27;8.90;;;23.40;99.90;;;;;;4918565;29;20043;-73
2023/05/08 16:12:08;;;;;;;11.10;8.60;;;23.00;99.90;;;;;;4924653;29;20040;-73
2023/05/08 16:14:35;;;;;;;11.65;9.75;;;22.70;99.90;;;;;;4927391;29;20036;-74
2023/05/08 16:17:01;;;;;;;10.68;9.35;;;22.20;99.90;;;;;;4927867;29;20051;-73
2023/05/08 16:19:27;;;;;;;15.63;9.10;;;21.70;99.90;;;;;;4909213;29;20036;-72
2023/05/08 16:21:52;;;;;;;11.00;9.52;;;21.70;99.90;;;;;;4909178;29;20206;-73
2023/05/08 16:24:18;;;;;;;10.88;9.75;;;21.70;99.90;;;;;;4892121;29;20083;-72
2023/05/08 16:26:44;;;;;;;11.13;9.70;;;21.80;99.90;;;;;;4908419;29;20043;-74
2023/05/08 16:29:10;;;;;;;12.32;9.07;;;21.70;99.90;;;;;;4911988;29;20104;-73
2023/05/08 16:31:35;;;;;;;11.85;8.85;;;21.60;99.90;;;;;;4908487;29;20028;-73
2023/05/08 16:34:01;;;;;;;12.60;9.85;;;21.30;99.90;;;;;;4926019;29;20035;-73
2023/05/08 16:36:27;;;;;;;12.55;9.30;;;21.10;99.90;;;;;;4909535;29;20029;-72
2023/05/08 16:38:53;;;;;;;12.35;11.05;;;21.10;99.90;;;;;;4908403;29;20037;-74
2023/05/08 16:41:18;;;;;;;12.55;10.60;;;20.80;99.90;;;;;;4907791;29;20036;-74
2023/05/08 16:43:44;;;;;;;13.15;11.05;;;20.60;99.90;;;;;;4907988;29;20085;-74
2023/05/08 16:46:10;;;;;;;12.77;10.60;;;20.30;99.90;;;;;;4908266;29;20336;-73
2023/05/08 16:48:35;;;;;;;13.85;10.82;;;20.10;99.90;;;;;;4922187;29;20031;-73
2023/05/08 16:51:01;;;;;;;12.00;10.70;;;19.90;99.90;;;;;;4927417;29;20039;-74
2023/05/08 16:53:27;;;;;;;12.52;9.98;;;19.80;99.90;;;;;;4926574;29;20028;-74
2023/05/08 16:55:53;;;;;;;14.23;10.40;;;19.70;99.90;;;;;;4927243;29;20035;-74
2023/05/08 16:58:20;;;;;;;13.60;10.73;;;19.70;99.90;;;;;;4912887;29;20072;-75
2023/05/08 17:00:46;;;;;;;14.18;11.18;;;19.60;99.90;;;;;;4915278;29;20031;-73
2023/05/08 17:03:11;;;;;;;15.55;11.23;;;19.50;99.90;;;;;;4907638;29;20334;-74
2023/05/08 17:05:37;;;;;;;13.50;10.63;;;19.50;99.90;;;;;;4907373;29;20099;-72
2023/05/08 17:08:03;;;;;;;13.40;10.23;;;19.40;99.90;;;;;;4891569;29;20322;-72
2023/05/08 17:10:29;;;;;;;12.95;10.88;;;19.20;99.90;;;;;;4912452;29;20384;-72
2023/05/08 17:12:55;;;;;;;11.90;9.80;;;19.20;99.90;;;;;;4908304;29;20095;-73
2023/05/08 17:15:20;;;;;;;13.13;10.52;;;19.20;99.90;;;;;;4907777;29;20028;-73
2023/05/08 17:17:48;;;;;;;12.70;9.40;;;19.20;99.90;;;;;;4907856;29;20092;-73
2023/05/08 17:20:14;;;;;;;14.88;11.00;;;19.20;99.90;;;;;;4907781;29;20243;-73
2023/05/08 17:22:40;;;;;;;12.10;10.30;;;19.20;99.90;;;;;;4907194;29;20080;-73
2023/05/08 17:25:06;;;;;;;12.82;10.20;;;19.20;99.90;;;;;;4907675;29;20044;-72
2023/05/08 17:27:34;;;;;;;14.32;10.18;;;19.30;99.90;;;;;;4907347;29;20254;-72
2023/05/08 17:30:00;;;;;;;11.35;9.98;;;19.20;99.90;;;;;;4907613;29;20045;-74
2023/05/08 17:32:26;;;;;;;11.45;9.02;;;19.30;99.90;;;;;;4907400;29;20043;-74
2023/05/08 17:34:52;;;;;;;16.10;12.68;;;19.40;99.90;;;;;;4907669;29;20040;-73
2023/05/08 17:37:18;;;;;;;12.68;10.82;;;19.40;99.90;;;;;;4924425;29;20024;-72
2023/05/08 17:39:43;;;;;;;13.45;9.57;;;19.30;99.90;;;;;;4925987;29;20028;-72
2023/05/08 17:42:09;;;;;;;15.18;11.55;;;19.30;99.90;;;;;;4896190;29;20033;-74